createdAt,value
2022-09-22T00:07:53.347Z,9.40
2022-09-22T00:17:54.620Z,9.23
2022-09-22T00:27:56.723Z,5.65
2022-09-22T00:37:58.009Z,8.65
2022-09-22T00:48:00.372Z,7.20
2022-09-22T00:58:01.644Z,7.15
2022-09-22T01:08:02.959Z,7.80
2022-09-22T01:18:04.259Z,7.75
2022-09-22T01:28:05.455Z,6.68
2022-09-22T01:38:06.736Z,9.27
2022-09-22T01:48:09.160Z,5.97
2022-09-22T01:58:11.188Z,7.78
2022-09-22T02:08:12.482Z,5.43
2022-09-22T02:18:13.775Z,5.38
2022-09-22T02:28:15.059Z,8.32
2022-09-22T02:38:16.335Z,5.75
2022-09-22T02:48:17.546Z,9.32
2022-09-22T02:58:18.860Z,9.85
2022-09-22T03:08:20.150Z,9.18
2022-09-22T03:18:21.452Z,6.97
2022-09-22T03:28:22.674Z,8.10
2022-09-22T03:38:23.906Z,7.25
2022-09-22T03:48:25.219Z,8.38
2022-09-22T03:58:26.506Z,7.32
2022-09-22T04:08:27.943Z,6.85
2022-09-22T04:18:29.594Z,9.40
2022-09-22T04:28:30.795Z,10.95
2022-09-22T04:38:32.089Z,8.23
2022-09-22T04:48:33.354Z,8.25
2022-09-22T04:58:34.668Z,8.35
2022-09-22T05:08:36.012Z,8.48
2022-09-22T05:18:37.314Z,10.05
2022-09-22T05:28:38.595Z,8.98
2022-09-22T05:38:39.892Z,10.98
2022-09-22T05:48:41.172Z,8.93
2022-09-22T05:58:42.464Z,12.30
2022-09-22T06:08:48.371Z,9.52
2022-09-22T06:18:50.346Z,10.50
2022-09-22T06:28:51.623Z,10.57
2022-09-22T06:38:54.192Z,12.93
2022-09-22T06:48:58.424Z,14.50
2022-09-22T06:59:09.811Z,9.27
2022-09-22T07:09:12.424Z,8.02
2022-09-22T07:19:14.891Z,9.80
2022-09-22T07:29:17.764Z,8.43
2022-09-22T07:39:19.080Z,10.27
2022-09-22T07:49:22.208Z,8.23
2022-09-22T07:59:23.501Z,8.45
2022-09-22T08:09:24.842Z,10.90
2022-09-22T08:19:26.557Z,7.18
2022-09-22T08:29:27.964Z,6.38
2022-09-22T08:39:30.129Z,5.82
2022-09-22T08:49:50.319Z,6.10
2022-09-22T08:59:52.165Z,7.07
2022-09-22T09:09:53.689Z,9.27
2022-09-22T09:19:55.225Z,6.57
2022-09-22T09:29:56.569Z,6.00
2022-09-22T09:39:57.902Z,4.50
2022-09-22T09:49:59.216Z,5.88
2022-09-22T10:00:29.835Z,5.28
2022-09-22T10:10:31.908Z,4.50
2022-09-22T10:20:33.962Z,4.57
2022-09-22T10:30:37.856Z,5.50
2022-09-22T10:40:39.224Z,3.30
2022-09-22T10:50:41.243Z,4.80
2022-09-22T11:00:42.598Z,4.78
2022-09-22T11:11:02.490Z,3.08
2022-09-22T11:21:04.043Z,5.03
2022-09-22T11:31:05.392Z,3.40
2022-09-22T11:41:06.742Z,6.22
2022-09-22T11:51:08.843Z,1.80
2022-09-22T12:01:13.256Z,2.55
2022-09-22T12:21:16.368Z,1.75
2022-09-22T12:31:18.832Z,3.60
2022-09-22T12:41:21.356Z,2.83
2022-09-22T12:51:22.677Z,2.00
2022-09-22T13:01:25.422Z,2.63
2022-09-22T13:11:26.713Z,2.55
2022-09-22T13:21:28.279Z,3.22
2022-09-22T13:31:29.496Z,2.75
2022-09-22T13:41:30.792Z,4.57
2022-09-22T13:51:32.068Z,5.05
2022-09-22T14:01:34.089Z,3.10
2022-09-22T14:11:35.447Z,2.53
2022-09-22T14:21:36.788Z,4.13
2022-09-22T14:31:38.197Z,6.32
2022-09-22T14:41:39.564Z,4.10
2022-09-22T14:51:40.868Z,2.63
2022-09-22T15:02:00.934Z,4.05
2022-09-22T15:12:02.797Z,3.42
2022-09-22T15:22:06.622Z,2.58
2022-09-22T15:32:07.857Z,4.10
2022-09-22T15:42:11.212Z,2.53
2022-09-22T15:52:12.529Z,3.42
2022-09-22T16:02:14.005Z,3.88
2022-09-22T16:12:15.386Z,3.75
2022-09-22T16:22:17.172Z,3.38
2022-09-22T16:32:19.926Z,6.65
2022-09-22T16:42:23.659Z,5.18
2022-09-22T16:52:32.000Z,5.40
2022-09-22T17:02:33.510Z,4.40
2022-09-22T17:12:35.350Z,5.03
2022-09-22T17:22:37.174Z,6.05
2022-09-22T17:32:38.516Z,4.97
2022-09-22T17:42:39.726Z,3.67
2022-09-22T17:52:59.705Z,4.60
2022-09-22T18:03:02.229Z,5.25
2022-09-22T18:13:04.336Z,5.43
2022-09-22T18:23:06.867Z,7.53
2022-09-22T18:33:08.086Z,9.73
2022-09-22T18:43:10.457Z,5.50
2022-09-22T18:53:11.956Z,7.53
2022-09-22T19:03:13.209Z,4.32
2022-09-22T19:13:17.190Z,4.63
2022-09-22T19:23:18.757Z,6.13
2022-09-22T19:33:20.341Z,6.47
2022-09-22T19:43:22.262Z,7.22
2022-09-22T19:53:24.219Z,6.10
2022-09-22T20:03:26.646Z,6.38
2022-09-22T20:13:46.759Z,7.72
2022-09-22T20:23:47.985Z,9.95
2022-09-22T20:33:49.203Z,6.28
2022-09-22T20:43:50.767Z,6.72
2022-09-22T20:53:52.030Z,9.98
2022-09-22T21:03:53.250Z,6.93
2022-09-22T21:13:55.675Z,7.88
2022-09-22T21:23:57.130Z,12.00
2022-09-22T21:33:58.509Z,13.70
2022-09-22T21:44:00.020Z,10.35
2022-09-22T21:54:03.023Z,10.93
2022-09-22T22:04:07.797Z,13.38
2022-09-22T22:24:31.847Z,8.90
2022-09-22T22:34:33.280Z,7.15
2022-09-22T22:44:35.276Z,7.07
2022-09-22T22:54:36.601Z,9.57
2022-09-22T23:04:38.012Z,9.25
2022-09-22T23:14:39.410Z,9.85
2022-09-22T23:24:40.751Z,10.75
2022-09-22T23:34:42.122Z,9.13
2022-09-22T23:44:43.467Z,7.05
2022-09-22T23:54:44.778Z,8.45
